createdAt,value
2023-09-27T00:02:09.439Z,8.10
2023-09-27T00:04:36.495Z,9.20
2023-09-27T00:07:03.536Z,7.65
2023-09-27T00:09:32.856Z,8.00
2023-09-27T00:12:00.045Z,9.15
2023-09-27T00:14:28.451Z,8.48
2023-09-27T00:16:55.568Z,9.23
2023-09-27T00:19:23.228Z,10.65
2023-09-27T00:21:50.075Z,9.05
2023-09-27T00:24:17.239Z,7.90
2023-09-27T00:26:44.139Z,11.48
2023-09-27T00:29:11.265Z,8.68
2023-09-27T00:31:38.306Z,8.32
2023-09-27T00:34:06.073Z,8.32
2023-09-27T00:36:33.031Z,8.52
2023-09-27T00:39:00.208Z,8.73
2023-09-27T00:41:27.716Z,7.55
2023-09-27T00:43:54.805Z,10.63
2023-09-27T00:46:23.758Z,9.50
2023-09-27T00:48:51.562Z,8.05
2023-09-27T00:51:19.361Z,11.30
2023-09-27T00:53:49.910Z,8.32
2023-09-27T00:56:17.534Z,7.15
2023-09-27T00:58:44.702Z,10.60
2023-09-27T01:01:14.164Z,7.38
2023-09-27T01:03:42.066Z,7.95
2023-09-27T01:06:09.604Z,8.82
2023-09-27T01:08:36.637Z,10.23
2023-09-27T01:11:05.978Z,7.47
2023-09-27T01:13:33.716Z,8.05
2023-09-27T01:16:00.790Z,9.10
2023-09-27T01:18:30.317Z,8.15
2023-09-27T01:20:57.472Z,10.02
2023-09-27T01:23:24.540Z,10.13
2023-09-27T01:25:58.191Z,7.85
2023-09-27T01:28:25.245Z,9.68
2023-09-27T01:30:53.578Z,7.50
2023-09-27T01:33:20.547Z,9.00
2023-09-27T01:35:47.529Z,8.90
2023-09-27T01:38:14.683Z,10.32
2023-09-27T01:40:46.200Z,11.60
2023-09-27T01:43:13.640Z,8.18
2023-09-27T01:45:43.760Z,7.68
2023-09-27T01:48:10.813Z,12.00
2023-09-27T01:50:39.147Z,9.90
2023-09-27T01:53:06.881Z,9.70
2023-09-27T01:55:34.645Z,9.20
2023-09-27T01:58:02.568Z,8.23
2023-09-27T02:00:30.611Z,9.15
2023-09-27T02:02:59.797Z,8.85
2023-09-27T02:05:30.574Z,8.23
2023-09-27T02:07:57.643Z,8.38
2023-09-27T02:10:24.773Z,9.13
2023-09-27T02:12:51.829Z,9.77
2023-09-27T02:15:18.965Z,6.80
2023-09-27T02:17:46.949Z,7.95
2023-09-27T02:20:22.066Z,8.10
2023-09-27T02:25:38.681Z,7.80
2023-09-27T02:28:07.589Z,6.90
2023-09-27T02:30:34.584Z,7.27
2023-09-27T02:33:01.577Z,7.75
2023-09-27T02:35:28.645Z,8.45
2023-09-27T02:40:30.019Z,8.07
2023-09-27T02:42:57.012Z,8.50
2023-09-27T02:45:24.129Z,7.97
2023-09-27T02:47:51.301Z,7.82
2023-09-27T02:50:18.394Z,7.53
2023-09-27T02:52:45.913Z,7.07
2023-09-27T02:55:13.639Z,8.50
2023-09-27T02:57:41.063Z,7.30
2023-09-27T03:00:09.995Z,8.18
2023-09-27T03:05:08.970Z,7.53
2023-09-27T03:07:36.373Z,7.03
2023-09-27T03:10:12.129Z,7.50
2023-09-27T03:12:40.705Z,6.70
2023-09-27T03:15:13.915Z,7.53
2023-09-27T03:17:43.808Z,7.90
2023-09-27T03:20:18.449Z,6.88
2023-09-27T03:22:47.677Z,6.80
2023-09-27T03:25:15.476Z,7.47
2023-09-27T03:27:42.732Z,6.88
2023-09-27T03:30:10.270Z,6.90
2023-09-27T03:32:39.454Z,6.50
2023-09-27T03:35:08.624Z,6.78
2023-09-27T03:37:38.700Z,6.82
2023-09-27T03:40:14.681Z,6.35
2023-09-27T03:42:46.591Z,6.57
2023-09-27T03:45:16.497Z,6.50
2023-09-27T03:47:46.752Z,6.45
2023-09-27T03:50:19.054Z,6.40
2023-09-27T03:52:46.166Z,5.80
2023-09-27T03:55:13.701Z,6.45
2023-09-27T03:57:41.739Z,6.75
2023-09-27T04:00:15.876Z,7.25
2023-09-27T04:02:47.779Z,6.68
2023-09-27T04:05:16.245Z,6.60
2023-09-27T04:07:43.320Z,6.00
2023-09-27T04:10:10.877Z,5.93
2023-09-27T04:12:38.701Z,5.75
2023-09-27T04:15:09.622Z,6.85
2023-09-27T04:17:37.525Z,7.15
2023-09-27T04:20:20.501Z,6.88
2023-09-27T04:22:49.073Z,6.20
2023-09-27T04:25:16.660Z,5.72
2023-09-27T04:27:51.337Z,6.15
2023-09-27T04:30:23.744Z,6.20
2023-09-27T04:32:52.362Z,5.60
2023-09-27T04:35:21.118Z,5.38
2023-09-27T04:37:48.405Z,6.03
2023-09-27T04:40:15.904Z,5.28
2023-09-27T04:42:43.978Z,4.65
2023-09-27T04:45:13.474Z,4.80
2023-09-27T04:47:42.214Z,4.70
2023-09-27T04:50:17.153Z,5.33
2023-09-27T04:52:44.898Z,5.20
2023-09-27T04:55:12.034Z,4.68
2023-09-27T04:57:39.438Z,6.20
2023-09-27T05:00:13.249Z,4.55
2023-09-27T05:02:40.261Z,4.55
2023-09-27T05:05:09.125Z,4.22
2023-09-27T05:07:36.238Z,4.10
2023-09-27T05:10:03.629Z,4.30
2023-09-27T05:12:30.527Z,4.65
2023-09-27T05:14:59.486Z,5.10
2023-09-27T05:17:26.830Z,5.40
2023-09-27T05:19:54.719Z,4.50
2023-09-27T05:22:21.706Z,4.88
2023-09-27T05:24:48.725Z,5.03
2023-09-27T05:27:15.766Z,5.05
2023-09-27T05:29:43.254Z,5.30
2023-09-27T05:32:10.480Z,4.72
2023-09-27T05:34:37.523Z,4.68
2023-09-27T05:37:04.728Z,5.38
2023-09-27T05:39:31.701Z,4.70
2023-09-27T05:41:58.817Z,4.88
2023-09-27T05:44:26.384Z,5.22
2023-09-27T05:46:54.181Z,4.90
2023-09-27T05:49:21.903Z,4.03
2023-09-27T05:51:53.757Z,4.40
2023-09-27T05:54:21.312Z,5.00
2023-09-27T05:56:52.976Z,5.10
2023-09-27T05:59:25.621Z,4.70
2023-09-27T06:01:56.194Z,4.97
2023-09-27T06:04:23.473Z,4.93
2023-09-27T06:06:50.997Z,4.97
2023-09-27T06:09:18.855Z,5.25
2023-09-27T06:11:47.730Z,5.38
2023-09-27T06:14:14.835Z,5.17
2023-09-27T06:16:42.680Z,5.82
2023-09-27T06:19:11.265Z,6.30
2023-09-27T06:21:38.812Z,6.63
2023-09-27T06:24:09.841Z,7.28
2023-09-27T06:26:36.963Z,6.10
2023-09-27T06:29:04.193Z,6.03
2023-09-27T06:31:31.739Z,6.32
2023-09-27T06:33:59.021Z,8.80
2023-09-27T06:36:31.064Z,11.85
2023-09-27T06:38:58.114Z,10.02
2023-09-27T06:41:25.128Z,8.82
2023-09-27T06:43:52.283Z,9.95
2023-09-27T06:46:20.365Z,9.18
2023-09-27T06:48:47.893Z,8.10
2023-09-27T06:51:15.033Z,8.48
2023-09-27T06:53:43.630Z,9.65
2023-09-27T06:56:10.826Z,14.55
2023-09-27T06:58:38.641Z,9.20
2023-09-27T07:01:06.441Z,8.88
2023-09-27T07:03:35.467Z,10.15
2023-09-27T07:06:03.963Z,9.80
2023-09-27T07:08:31.535Z,9.40
2023-09-27T07:11:06.736Z,9.25
2023-09-27T07:13:33.956Z,8.60
2023-09-27T07:16:02.924Z,10.90
2023-09-27T07:18:30.084Z,8.20
2023-09-27T07:20:57.675Z,8.52
2023-09-27T07:23:24.766Z,8.55
2023-09-27T07:25:51.769Z,9.13
2023-09-27T07:28:18.783Z,8.95
2023-09-27T07:30:46.410Z,11.35
2023-09-27T07:33:13.826Z,8.07
2023-09-27T07:35:45.461Z,14.82
2023-09-27T07:38:12.846Z,8.63
2023-09-27T07:40:40.167Z,13.27
2023-09-27T07:43:07.615Z,11.20
2023-09-27T07:45:37.813Z,8.93
2023-09-27T07:48:05.654Z,8.52
2023-09-27T07:50:33.145Z,8.15
2023-09-27T07:53:01.312Z,9.20
2023-09-27T07:55:28.486Z,12.88
2023-09-27T07:57:55.902Z,9.18
2023-09-27T08:00:27.048Z,7.68
2023-09-27T08:02:56.566Z,9.07
2023-09-27T08:05:24.185Z,8.85
2023-09-27T08:07:54.637Z,9.07
2023-09-27T08:10:22.499Z,10.02
2023-09-27T08:12:49.898Z,12.77
2023-09-27T08:15:19.173Z,10.93
2023-09-27T08:17:49.065Z,10.90
2023-09-27T08:20:16.490Z,9.57
2023-09-27T08:22:43.861Z,13.35
2023-09-27T08:25:18.252Z,16.25
2023-09-27T08:27:46.251Z,8.77
2023-09-27T08:30:16.175Z,10.88
2023-09-27T08:32:47.604Z,9.73
2023-09-27T08:35:14.806Z,8.35
2023-09-27T08:37:41.749Z,9.48
2023-09-27T08:40:14.364Z,25.90
2023-09-27T08:42:42.966Z,25.77
2023-09-27T08:45:17.674Z,26.20
2023-09-27T08:47:46.420Z,25.25
2023-09-27T08:50:16.945Z,23.13
2023-09-27T08:52:49.850Z,18.50
2023-09-27T08:55:19.205Z,21.60
2023-09-27T08:57:51.238Z,12.32
2023-09-27T09:00:27.503Z,18.25
2023-09-27T09:03:00.032Z,14.95
2023-09-27T09:05:29.490Z,13.30
2023-09-27T09:07:57.653Z,10.20
2023-09-27T09:10:25.010Z,15.13
2023-09-27T09:12:53.431Z,9.35
2023-09-27T09:15:41.386Z,10.00
2023-09-27T09:18:37.784Z,11.35
2023-09-27T09:21:18.706Z,8.75
2023-09-27T09:23:50.635Z,11.13
2023-09-27T09:26:29.830Z,12.43
2023-09-27T09:29:00.488Z,14.25
2023-09-27T09:31:34.377Z,9.63
2023-09-27T09:34:09.243Z,8.63
2023-09-27T09:36:38.291Z,8.57
2023-09-27T09:39:07.187Z,11.25
2023-09-27T09:42:00.362Z,11.13
2023-09-27T09:44:27.602Z,8.70
2023-09-27T09:46:54.703Z,6.90
2023-09-27T09:49:23.003Z,10.13
2023-09-27T09:51:54.112Z,8.95
2023-09-27T09:54:47.850Z,8.95
2023-09-27T09:57:24.809Z,6.75
2023-09-27T10:00:28.475Z,8.45
2023-09-27T10:03:03.749Z,6.70
2023-09-27T10:05:52.919Z,6.93
2023-09-27T10:08:20.908Z,11.52
2023-09-27T10:10:48.375Z,8.00
2023-09-27T10:13:16.094Z,11.50
2023-09-27T10:15:44.466Z,8.77
2023-09-27T10:18:23.708Z,19.52
2023-09-27T10:21:06.088Z,7.47
2023-09-27T10:23:58.717Z,7.03
2023-09-27T10:26:28.771Z,6.68
2023-09-27T10:29:05.742Z,8.10
2023-09-27T10:31:37.573Z,8.27
2023-09-27T10:34:24.725Z,12.20
2023-09-27T10:37:04.648Z,9.43
2023-09-27T10:39:40.023Z,5.63
2023-09-27T10:42:07.322Z,6.97
2023-09-27T10:44:36.782Z,10.32
2023-09-27T10:47:07.635Z,8.88
2023-09-27T10:49:40.017Z,4.28
2023-09-27T10:52:19.810Z,7.55
2023-09-27T10:54:48.121Z,5.15
2023-09-27T10:57:15.746Z,7.00
2023-09-27T10:59:46.103Z,6.80
2023-09-27T11:02:13.298Z,5.93
2023-09-27T11:04:42.179Z,4.28
2023-09-27T11:07:09.260Z,7.72
2023-09-27T11:09:45.145Z,5.80
2023-09-27T11:12:12.064Z,4.35
2023-09-27T11:14:48.629Z,8.60
2023-09-27T11:17:23.944Z,6.50
2023-09-27T11:19:52.053Z,5.50
2023-09-27T11:22:31.534Z,4.20
2023-09-27T11:24:58.607Z,3.80
2023-09-27T11:27:25.689Z,4.75
2023-09-27T11:29:54.240Z,5.00
2023-09-27T11:32:23.452Z,4.47
2023-09-27T11:35:01.264Z,5.80
2023-09-27T11:37:29.813Z,10.20
2023-09-27T11:39:58.497Z,5.60
2023-09-27T11:42:27.994Z,6.95
2023-09-27T11:45:12.448Z,5.63
2023-09-27T11:47:49.868Z,5.00
2023-09-27T11:50:18.980Z,6.53
2023-09-27T11:52:48.173Z,8.27
2023-09-27T11:57:43.246Z,7.63
2023-09-27T12:00:14.810Z,5.03
2023-09-27T12:02:52.036Z,6.28
2023-09-27T12:05:23.554Z,3.63
2023-09-27T12:07:51.001Z,5.20
2023-09-27T12:10:18.329Z,7.80
2023-09-27T12:12:45.404Z,4.40
2023-09-27T12:15:12.419Z,6.07
2023-09-27T12:17:39.628Z,7.28
2023-09-27T12:20:13.273Z,7.32
2023-09-27T12:22:47.002Z,6.50
2023-09-27T12:25:14.382Z,3.50
2023-09-27T12:27:41.576Z,4.78
2023-09-27T12:30:09.589Z,5.97
2023-09-27T12:32:36.629Z,5.20
2023-09-27T12:35:05.568Z,3.58
2023-09-27T12:37:32.958Z,3.95
2023-09-27T12:39:59.849Z,3.47
2023-09-27T12:42:27.585Z,5.50
2023-09-27T12:44:55.166Z,6.13
2023-09-27T12:47:22.480Z,6.85
2023-09-27T12:49:49.378Z,6.90
2023-09-27T12:52:16.494Z,3.80
2023-09-27T12:54:45.722Z,7.47
2023-09-27T12:59:39.692Z,4.13
2023-09-27T13:02:07.756Z,4.07
2023-09-27T13:04:36.307Z,3.35
2023-09-27T13:07:04.250Z,3.90
2023-09-27T13:09:32.227Z,7.25
2023-09-27T13:12:09.663Z,7.90
2023-09-27T13:14:36.752Z,4.63
2023-09-27T13:17:03.627Z,4.93
2023-09-27T13:19:32.657Z,4.35
2023-09-27T13:21:59.684Z,4.38
2023-09-27T13:24:26.651Z,4.70
2023-09-27T13:26:53.806Z,4.07
2023-09-27T13:29:20.885Z,4.05
2023-09-27T13:31:48.387Z,3.38
2023-09-27T13:34:17.243Z,3.97
2023-09-27T13:36:44.394Z,4.20
2023-09-27T13:39:23.387Z,5.55
2023-09-27T13:41:50.473Z,4.00
2023-09-27T13:44:17.495Z,4.13
2023-09-27T13:46:45.623Z,3.42
2023-09-27T13:49:13.266Z,3.33
2023-09-27T13:51:41.026Z,4.75
2023-09-27T13:54:08.740Z,3.78
2023-09-27T13:56:38.212Z,4.07
2023-09-27T13:59:06.332Z,4.47
2023-09-27T14:01:33.697Z,5.05
2023-09-27T14:04:02.300Z,4.00
2023-09-27T14:06:29.963Z,3.45
2023-09-27T14:08:57.774Z,5.63
2023-09-27T14:11:24.964Z,4.93
2023-09-27T14:13:52.486Z,4.35
2023-09-27T14:16:20.069Z,5.07
2023-09-27T14:18:47.331Z,4.05
2023-09-27T14:21:14.959Z,4.28
2023-09-27T14:23:43.864Z,3.88
2023-09-27T14:26:14.678Z,3.92
2023-09-27T14:28:41.850Z,6.13
2023-09-27T14:31:09.048Z,5.93
2023-09-27T14:33:36.459Z,4.13
2023-09-27T14:36:06.837Z,5.82
2023-09-27T14:38:37.268Z,5.15
2023-09-27T14:41:09.527Z,5.63
2023-09-27T14:43:38.534Z,4.88
2023-09-27T14:46:13.041Z,5.60
2023-09-27T14:48:40.666Z,4.57
2023-09-27T14:51:12.731Z,7.28
2023-09-27T14:53:42.349Z,5.03
2023-09-27T14:56:10.861Z,4.13
2023-09-27T14:58:38.244Z,4.13
2023-09-27T15:01:05.919Z,4.35
2023-09-27T15:03:33.804Z,3.95
2023-09-27T15:06:05.018Z,3.70
2023-09-27T15:08:33.147Z,4.18
2023-09-27T15:11:00.781Z,5.03
2023-09-27T15:13:28.654Z,4.10
2023-09-27T15:15:55.874Z,4.50
2023-09-27T15:18:25.736Z,3.53
2023-09-27T15:20:53.618Z,4.13
2023-09-27T15:23:20.789Z,10.70
2023-09-27T15:25:49.543Z,4.32
2023-09-27T15:28:16.579Z,4.00
2023-09-27T15:30:43.535Z,6.30
2023-09-27T15:33:10.751Z,4.65
2023-09-27T15:35:39.176Z,4.07
2023-09-27T15:38:06.791Z,4.43
2023-09-27T15:40:34.537Z,4.47
2023-09-27T15:43:02.035Z,4.38
2023-09-27T15:45:30.589Z,4.95
2023-09-27T15:47:58.222Z,5.32
2023-09-27T15:50:25.443Z,6.00
2023-09-27T15:52:52.414Z,4.53
2023-09-27T15:55:19.914Z,5.15
2023-09-27T15:57:46.901Z,4.30
2023-09-27T16:00:14.500Z,4.20
2023-09-27T16:02:41.417Z,4.00
2023-09-27T16:05:12.686Z,4.95
2023-09-27T16:07:43.136Z,4.82
2023-09-27T16:10:10.754Z,4.40
2023-09-27T16:12:38.215Z,5.78
2023-09-27T16:15:10.588Z,6.38
2023-09-27T16:17:40.149Z,4.75
2023-09-27T16:20:08.353Z,5.45
2023-09-27T16:22:35.919Z,4.90
2023-09-27T16:25:06.791Z,6.90
2023-09-27T16:27:34.270Z,6.93
2023-09-27T16:30:01.479Z,5.65
2023-09-27T16:32:29.665Z,5.20
2023-09-27T16:34:56.745Z,6.38
2023-09-27T16:37:23.839Z,7.03
2023-09-27T16:39:50.940Z,6.53
2023-09-27T16:42:17.911Z,9.43
2023-09-27T16:44:44.928Z,6.18
2023-09-27T16:47:11.866Z,8.07
2023-09-27T16:49:39.358Z,5.03
2023-09-27T16:52:06.508Z,5.40
2023-09-27T16:54:33.399Z,5.07
2023-09-27T16:57:00.427Z,5.63
2023-09-27T16:59:27.726Z,5.40
2023-09-27T17:01:54.835Z,10.07
2023-09-27T17:04:21.966Z,6.93
2023-09-27T17:06:49.787Z,7.15
2023-09-27T17:09:17.245Z,8.07
2023-09-27T17:11:44.359Z,8.70
2023-09-27T17:14:12.448Z,8.82
2023-09-27T17:16:42.437Z,8.55
2023-09-27T17:19:09.454Z,7.88
2023-09-27T17:21:36.742Z,8.18
2023-09-27T17:24:04.057Z,9.20
2023-09-27T17:26:30.947Z,10.55
2023-09-27T17:29:01.208Z,8.15
2023-09-27T17:31:28.733Z,8.05
2023-09-27T17:33:56.050Z,13.45
2023-09-27T17:36:30.006Z,11.15
2023-09-27T17:38:57.184Z,10.20
2023-09-27T17:41:24.336Z,11.38
2023-09-27T17:43:51.679Z,12.50
2023-09-27T17:46:26.467Z,11.48
2023-09-27T17:48:54.215Z,13.02
2023-09-27T17:51:21.139Z,10.85
2023-09-27T17:53:48.190Z,9.18
2023-09-27T17:56:15.328Z,13.52
2023-09-27T17:58:42.250Z,7.85
2023-09-27T18:01:09.264Z,9.40
2023-09-27T18:03:36.621Z,10.55
2023-09-27T18:06:14.053Z,10.85
2023-09-27T18:08:41.834Z,8.55
2023-09-27T18:11:09.809Z,7.88
2023-09-27T18:13:36.969Z,12.45
2023-09-27T18:16:11.843Z,11.25
2023-09-27T18:18:38.873Z,8.48
2023-09-27T18:21:05.891Z,12.15
2023-09-27T18:23:32.872Z,8.80
2023-09-27T18:25:59.874Z,7.78
2023-09-27T18:28:26.913Z,7.90
2023-09-27T18:30:57.112Z,11.65
2023-09-27T18:33:25.255Z,10.93
2023-09-27T18:35:52.456Z,9.63
2023-09-27T18:38:19.444Z,12.80
2023-09-27T18:40:46.690Z,13.50
2023-09-27T18:43:17.465Z,10.82
2023-09-27T18:45:44.937Z,10.88
2023-09-27T18:48:16.781Z,12.52
2023-09-27T18:50:49.520Z,10.82
2023-09-27T18:53:16.778Z,14.85
2023-09-27T18:55:46.742Z,10.60
2023-09-27T18:58:16.693Z,11.10
2023-09-27T19:00:44.481Z,13.20
2023-09-27T19:03:13.794Z,11.38
2023-09-27T19:05:41.599Z,12.80
2023-09-27T19:08:09.124Z,10.65
2023-09-27T19:10:39.073Z,12.68
2023-09-27T19:13:22.383Z,10.75
2023-09-27T19:15:49.755Z,9.52
2023-09-27T19:18:16.654Z,11.18
2023-09-27T19:20:43.712Z,11.18
2023-09-27T19:23:10.701Z,11.30
2023-09-27T19:25:37.779Z,9.30
2023-09-27T19:28:04.785Z,12.68
2023-09-27T19:30:34.221Z,14.10
2023-09-27T19:33:01.491Z,8.95
2023-09-27T19:35:29.516Z,10.20
2023-09-27T19:37:56.599Z,12.95
2023-09-27T19:40:23.872Z,9.48
2023-09-27T19:42:51.371Z,11.95
2023-09-27T19:45:19.271Z,10.52
2023-09-27T19:47:46.580Z,10.43
2023-09-27T19:50:13.597Z,9.52
2023-09-27T19:52:40.798Z,11.38
2023-09-27T19:55:10.224Z,12.23
2023-09-27T19:57:37.738Z,8.90
2023-09-27T20:00:08.184Z,11.38
2023-09-27T20:02:38.346Z,11.65
2023-09-27T20:05:07.622Z,12.30
2023-09-27T20:07:35.381Z,13.27
2023-09-27T20:10:02.288Z,13.77
2023-09-27T20:12:29.209Z,15.45
2023-09-27T20:14:56.513Z,12.32
2023-09-27T20:17:23.610Z,12.02
2023-09-27T20:19:50.600Z,14.85
2023-09-27T20:22:20.062Z,15.75
2023-09-27T20:24:47.156Z,13.88
2023-09-27T20:27:14.124Z,16.60
2023-09-27T20:29:41.220Z,13.05
2023-09-27T20:32:08.249Z,12.48
2023-09-27T20:34:35.475Z,13.35
2023-09-27T20:37:02.353Z,18.00
2023-09-27T20:39:29.325Z,11.95
2023-09-27T20:41:57.421Z,14.77
2023-09-27T20:44:24.990Z,11.70
2023-09-27T20:46:52.382Z,13.23
2023-09-27T20:49:19.415Z,13.75
2023-09-27T20:51:46.315Z,16.10
2023-09-27T20:54:13.636Z,13.18
2023-09-27T20:56:40.568Z,14.73
2023-09-27T20:59:09.177Z,10.43
2023-09-27T21:01:42.366Z,13.77
2023-09-27T21:04:11.471Z,12.93
2023-09-27T21:06:38.471Z,14.10
2023-09-27T21:09:05.449Z,14.30
2023-09-27T21:11:33.144Z,14.77
2023-09-27T21:14:01.378Z,15.73
2023-09-27T21:16:30.437Z,17.35
2023-09-27T21:18:58.074Z,14.27
2023-09-27T21:21:25.166Z,13.32
2023-09-27T21:23:53.503Z,12.88
2023-09-27T21:26:24.067Z,14.37
2023-09-27T21:28:51.085Z,14.30
2023-09-27T21:31:19.076Z,14.07
2023-09-27T21:33:46.032Z,13.95
2023-09-27T21:36:13.279Z,12.55
2023-09-27T21:38:40.413Z,13.80
2023-09-27T21:41:07.643Z,15.20
2023-09-27T21:43:34.775Z,12.75
2023-09-27T21:46:02.594Z,13.93
2023-09-27T21:48:30.408Z,11.10
2023-09-27T21:50:57.523Z,14.77
2023-09-27T21:53:24.584Z,15.60
2023-09-27T21:55:51.679Z,18.30
2023-09-27T21:58:18.652Z,16.75
2023-09-27T22:00:45.648Z,19.38
2023-09-27T22:03:14.558Z,13.10
2023-09-27T22:05:42.208Z,19.10
2023-09-27T22:08:17.721Z,14.77
2023-09-27T22:10:45.615Z,15.70
2023-09-27T22:13:22.574Z,13.88
2023-09-27T22:15:55.894Z,12.63
2023-09-27T22:18:23.931Z,9.68
2023-09-27T22:20:50.990Z,13.40
2023-09-27T22:23:33.238Z,11.73
2023-09-27T22:26:01.590Z,12.77
2023-09-27T22:28:31.918Z,11.65
2023-09-27T22:31:02.452Z,9.23
2023-09-27T22:33:36.118Z,9.88
2023-09-27T22:36:03.246Z,13.90
2023-09-27T22:38:31.989Z,12.10
2023-09-27T22:40:58.935Z,10.43
2023-09-27T22:43:25.865Z,12.88
2023-09-27T22:45:53.651Z,13.63
2023-09-27T22:48:20.945Z,13.13
2023-09-27T22:50:49.689Z,10.40
2023-09-27T22:53:18.259Z,10.40
2023-09-27T22:56:00.227Z,10.77
2023-09-27T22:58:29.954Z,12.60
2023-09-27T23:03:30.411Z,10.00
2023-09-27T23:08:29.022Z,10.80
2023-09-27T23:11:00.485Z,11.18
2023-09-27T23:13:31.275Z,11.13
2023-09-27T23:16:22.491Z,9.85
2023-09-27T23:18:49.990Z,11.52
2023-09-27T23:21:24.397Z,9.25
2023-09-27T23:23:57.731Z,9.07
2023-09-27T23:26:50.991Z,13.55
2023-09-27T23:29:30.083Z,14.95
2023-09-27T23:31:58.910Z,10.50
2023-09-27T23:34:45.209Z,9.02
2023-09-27T23:37:13.927Z,10.63
2023-09-27T23:39:44.773Z,12.93
2023-09-27T23:42:28.702Z,12.18
2023-09-27T23:45:09.604Z,12.75
2023-09-27T23:47:45.225Z,12.82
2023-09-27T23:50:17.214Z,10.43
2023-09-27T23:52:48.719Z,9.18
2023-09-27T23:55:21.670Z,9.93
2023-09-27T23:57:49.174Z,9.93
